You are listening to:
KLOU Tower - Louisville, Kentucky, United States

KLOU 250753Z AUTO 00000KT 10SM FEW060 21/17 A3005 RMK AO2 SLP169 T02110172 TSNO

If stream does not start automatically press the play button